This is the latest recevied weather packets stored in our database for station/object CA3SQH-10. If no packets are shown the sender has not sent any weather packets the latest 10 day(s).
| Time | Temp. | Humidity | Pressure | Rain* | Wind** | Luminosity | Snow |
|---|---|---|---|---|---|---|---|
| 1777801053 | 12.78° C | 53% | 938.4 hPa | - | - | - | - |
| 1777800153 | 12.78° C | 51% | 938.4 hPa | - | - | - | - |
| 1777799253 | 13.33° C | 50% | 938.4 hPa | - | - | - | - |
| 1777798352 | 13.33° C | 51% | 938.1 hPa | - | - | - | - |
| 1777797452 | 12.78° C | 53% | 938.3 hPa | - | - | - | - |
| 1777796557 | 13.33° C | 54% | 938.5 hPa | - | - | - | - |
| 1777795657 | 13.33° C | 54% | 938.5 hPa | - | - | - | - |
| 1777794757 | 13.89° C | 54% | 938.8 hPa | - | - | - | - |
| 1777793856 | 13.89° C | 54% | 939.2 hPa | - | - | - | - |
| 1777792956 | 13.89° C | 55% | 939.2 hPa | - | - | - | - |
| 1777792056 | 14.44° C | 52% | 939.4 hPa | - | - | - | - |
| 1777791156 | 14.44° C | 51% | 939.1 hPa | - | - | - | - |
| 1777790255 | 14.44° C | 50% | 938.8 hPa | - | - | - | - |
| 1777789355 | 14.44° C | 51% | 938.9 hPa | - | - | - | - |
| 1777788455 | 15° C | 45% | 938.8 hPa | - | - | - | - |
| 1777787555 | 15° C | 45% | 938.7 hPa | - | - | - | - |
| 1777786655 | 15.56° C | 44% | 938.6 hPa | - | - | - | - |
| 1777785755 | 15° C | 53% | 938.6 hPa | - | - | - | - |
| 1777784854 | 14.44° C | 53% | 939 hPa | - | - | - | - |
| 1777783954 | 14.44° C | 54% | 939.1 hPa | - | - | - | - |
| 1777783054 | 15° C | 53% | 939.4 hPa | - | - | - | - |
| 1777782154 | 15° C | 54% | 939.3 hPa | - | - | - | - |
| 1777781253 | 15° C | 53% | 939.2 hPa | - | - | - | - |
| 1777780353 | 15° C | 51% | 939.3 hPa | - | - | - | - |
| 1777779453 | 15.56° C | 50% | 939.3 hPa | - | - | - | - |
* Rain since midnight (hover to see other rain measurements)
** Current wind speed in m/s (hover to see current wind gust speed)